Time;durP1;ratioP1;P1;durP2;ratioP2;P2;SDS_P1;SDS_P2;PMS_P1;PMS_P2;Temp;Humidity;BMP_temperature;BMP_pressure;BME280_temperature;BME280_humidity;BME280_pressure;Samples;Min_cycle;Max_cycle;Signal;HPM_P1;HPM_P2
2023/12/24 00:02:13;;;;;;;;;;;19.60;60.10;;;;;;5056550;28;19928;-61
2023/12/24 00:04:41;;;;;;;;;;;19.60;60.00;;;;;;5055538;28;20027;-62
2023/12/24 00:07:06;;;;;;;;;;;19.60;60.10;;;;;;5056482;28;19924;-62
2023/12/24 00:09:32;;;;;;;;;;;19.60;60.10;;;;;;5056552;28;20341;-62
2023/12/24 00:11:57;;;;;;;;;;;19.60;60.10;;;;;;5055313;28;19925;-62
2023/12/24 00:14:23;;;;;;;;;;;19.60;60.00;;;;;;5056485;28;19930;-62
2023/12/24 00:16:48;;;;;;;;;;;19.50;60.00;;;;;;5074560;28;19925;-62
2023/12/24 00:19:14;;;;;;;;;;;19.60;60.00;;;;;;5055438;28;19924;-62
2023/12/24 00:21:39;;;;;;;;;;;19.50;60.00;;;;;;5073969;28;19931;-62
2023/12/24 00:24:05;;;;;;;;;;;19.50;60.00;;;;;;5054545;28;20303;-62
2023/12/24 00:26:31;;;;;;;;;;;19.50;60.00;;;;;;5054909;28;19970;-62
2023/12/24 00:28:57;;;;;;;;;;;19.50;60.00;;;;;;5073956;28;20419;-62
2023/12/24 00:31:22;;;;;;;;;;;19.50;60.00;;;;;;5094138;28;19924;-62
2023/12/24 00:33:49;;;;;;;;;;;19.50;60.00;;;;;;5092877;28;19928;-62
2023/12/24 00:36:14;;;;;;;;;;;19.50;59.90;;;;;;5075469;28;19924;-62
2023/12/24 00:38:40;;;;;;;;;;;19.50;59.90;;;;;;5076183;28;19930;-62
2023/12/24 00:41:05;;;;;;;;;;;19.50;59.90;;;;;;5092987;28;19951;-62
2023/12/24 00:43:30;;;;;;;;;;;19.50;59.90;;;;;;5075809;28;20401;-62
2023/12/24 00:45:56;;;;;;;;;;;19.50;59.90;;;;;;5093594;28;19924;-62
2023/12/24 00:48:22;;;;;;;;;;;19.50;59.90;;;;;;5092766;28;20436;-62
2023/12/24 00:50:47;;;;;;;;;;;19.40;59.90;;;;;;5093556;28;19924;-62
2023/12/24 00:53:13;;;;;;;;;;;19.40;59.90;;;;;;5075264;28;20461;-62
2023/12/24 00:55:39;;;;;;;;;;;19.40;59.90;;;;;;5073628;28;19924;-62
2023/12/24 00:58:05;;;;;;;;;;;19.40;59.80;;;;;;5092772;28;19924;-62
2023/12/24 01:00:30;;;;;;;;;;;19.40;59.90;;;;;;5074450;28;19944;-61
2023/12/24 01:02:56;;;;;;;;;;;19.40;59.80;;;;;;5075147;28;20376;-62
2023/12/24 01:05:21;;;;;;;;;;;19.40;59.80;;;;;;5074989;28;20012;-61
2023/12/24 01:07:47;;;;;;;;;;;19.40;59.90;;;;;;5092673;28;19924;-62
2023/12/24 01:10:13;;;;;;;;;;;19.40;59.80;;;;;;5093115;28;19982;-61
2023/12/24 01:12:38;;;;;;;;;;;19.40;59.80;;;;;;5093221;28;19924;-62
2023/12/24 01:15:04;;;;;;;;;;;19.40;59.80;;;;;;5092651;28;20371;-62
2023/12/24 01:17:29;;;;;;;;;;;19.30;59.80;;;;;;5093161;28;19985;-62
2023/12/24 01:19:58;;;;;;;;;;;19.30;59.80;;;;;;5075089;28;19925;-62
2023/12/24 01:22:23;;;;;;;;;;;19.30;59.80;;;;;;5090755;28;20375;-62
2023/12/24 01:24:49;;;;;;;;;;;19.30;59.80;;;;;;5073586;28;19987;-62
2023/12/24 01:27:15;;;;;;;;;;;19.30;59.80;;;;;;5073068;28;19938;-62
2023/12/24 01:29:41;;;;;;;;;;;19.30;59.80;;;;;;5064218;28;20334;-62
2023/12/24 01:32:06;;;;;;;;;;;19.30;59.80;;;;;;5092889;28;19924;-62
2023/12/24 01:34:32;;;;;;;;;;;19.30;59.80;;;;;;5075105;28;20011;-62
2023/12/24 01:36:57;;;;;;;;;;;19.30;59.80;;;;;;5092344;28;20003;-62
2023/12/24 01:39:23;;;;;;;;;;;19.30;59.80;;;;;;5074835;28;19973;-62
2023/12/24 01:41:48;;;;;;;;;;;19.30;59.80;;;;;;5074639;28;19970;-61
2023/12/24 01:44:14;;;;;;;;;;;19.30;59.80;;;;;;5091871;28;19959;-61
2023/12/24 01:46:40;;;;;;;;;;;19.30;59.80;;;;;;5075101;28;19924;-61
2023/12/24 01:49:06;;;;;;;;;;;19.20;59.80;;;;;;5073673;28;19968;-62
2023/12/24 01:51:31;;;;;;;;;;;19.20;59.80;;;;;;5074276;28;20335;-62
2023/12/24 01:53:57;;;;;;;;;;;19.20;59.70;;;;;;5058217;28;19924;-62
2023/12/24 01:56:22;;;;;;;;;;;19.20;59.80;;;;;;5075019;28;19939;-62
2023/12/24 01:58:49;;;;;;;;;;;19.20;59.80;;;;;;5091548;28;20391;-62
2023/12/24 02:01:14;;;;;;;;;;;19.20;59.80;;;;;;5092269;28;19924;-62
2023/12/24 02:03:40;;;;;;;;;;;19.20;59.80;;;;;;5092897;28;19931;-61
2023/12/24 02:06:05;;;;;;;;;;;19.20;59.80;;;;;;5074173;28;19927;-62
2023/12/24 02:08:31;;;;;;;;;;;19.20;59.70;;;;;;5092636;28;19968;-61
2023/12/24 02:10:57;;;;;;;;;;;19.20;59.80;;;;;;5091980;28;19924;-62
2023/12/24 02:13:22;;;;;;;;;;;19.20;59.80;;;;;;5097078;28;19931;-62
2023/12/24 02:15:49;;;;;;;;;;;19.20;59.70;;;;;;5096968;28;20380;-61
2023/12/24 02:18:15;;;;;;;;;;;19.20;59.70;;;;;;5061411;28;19924;-62
2023/12/24 02:20:40;;;;;;;;;;;19.10;59.70;;;;;;5077282;28;20440;-62
2023/12/24 02:23:06;;;;;;;;;;;19.20;59.80;;;;;;5095586;28;19924;-62
2023/12/24 02:25:31;;;;;;;;;;;19.10;59.70;;;;;;5096007;28;20429;-61
2023/12/24 02:28:08;;;;;;;;;;;19.10;59.70;;;;;;5078081;28;19964;-62
2023/12/24 02:30:36;;;;;;;;;;;19.10;59.70;;;;;;5078490;28;19993;-61
2023/12/24 02:33:02;;;;;;;;;;;19.10;59.70;;;;;;5095520;28;19970;-62
2023/12/24 02:35:29;;;;;;;;;;;19.10;59.70;;;;;;5061926;28;19928;-62
2023/12/24 02:37:54;;;;;;;;;;;19.10;59.70;;;;;;5060808;28;19924;-62
2023/12/24 02:40:20;;;;;;;;;;;19.10;59.70;;;;;;5060786;28;19930;-62
2023/12/24 02:42:45;;;;;;;;;;;19.10;59.70;;;;;;5096371;28;19924;-62
2023/12/24 02:45:11;;;;;;;;;;;19.10;59.70;;;;;;5077196;28;20673;-61
2023/12/24 02:47:37;;;;;;;;;;;19.10;59.70;;;;;;5094993;28;19924;-62
2023/12/24 02:50:03;;;;;;;;;;;19.10;59.70;;;;;;5077850;28;19924;-62
2023/12/24 02:52:28;;;;;;;;;;;19.00;59.60;;;;;;5077472;28;20355;-62
2023/12/24 02:54:55;;;;;;;;;;;19.00;59.60;;;;;;5094390;28;20411;-62
2023/12/24 02:57:21;;;;;;;;;;;19.10;59.70;;;;;;5096238;28;19924;-62
2023/12/24 02:59:47;;;;;;;;;;;19.00;59.60;;;;;;5071543;28;20032;-61
2023/12/24 03:02:12;;;;;;;;;;;19.00;59.60;;;;;;5057040;28;19928;-61
2023/12/24 03:04:37;;;;;;;;;;;19.00;59.60;;;;;;5057520;28;20529;-62
2023/12/24 03:07:03;;;;;;;;;;;19.00;59.70;;;;;;5040545;28;19966;-62
2023/12/24 03:09:29;;;;;;;;;;;19.00;59.60;;;;;;5074948;28;20022;-62
2023/12/24 03:11:55;;;;;;;;;;;19.00;59.70;;;;;;5057714;28;19931;-62
2023/12/24 03:14:20;;;;;;;;;;;19.00;59.60;;;;;;5074735;28;19931;-62
2023/12/24 03:16:45;;;;;;;;;;;19.00;59.60;;;;;;5057207;28;19925;-62
2023/12/24 03:19:12;;;;;;;;;;;19.00;59.60;;;;;;5057235;28;20011;-62
2023/12/24 03:21:43;;;;;;;;;;;19.00;59.60;;;;;;5074567;28;19930;-62
2023/12/24 03:24:09;;;;;;;;;;;19.00;59.70;;;;;;5090620;28;19924;-62
2023/12/24 03:26:34;;;;;;;;;;;19.00;59.60;;;;;;5095545;28;19931;-61
2023/12/24 03:29:03;;;;;;;;;;;19.00;59.70;;;;;;5076251;28;19924;-62
2023/12/24 03:31:28;;;;;;;;;;;19.00;59.70;;;;;;5076590;28;19924;-62
2023/12/24 03:33:54;;;;;;;;;;;19.00;59.70;;;;;;5076914;28;19932;-62
2023/12/24 03:36:19;;;;;;;;;;;19.00;59.70;;;;;;5094662;28;19924;-62
2023/12/24 03:38:45;;;;;;;;;;;19.00;59.70;;;;;;5094257;28;19998;-62
2023/12/24 03:41:10;;;;;;;;;;;19.00;59.70;;;;;;5094953;28;19993;-61
2023/12/24 03:43:36;;;;;;;;;;;19.00;59.70;;;;;;5076317;28;19930;-62
2023/12/24 03:46:02;;;;;;;;;;;19.00;60.30;;;;;;5094682;28;19928;-62
2023/12/24 03:48:28;;;;;;;;;;;19.00;59.70;;;;;;5077082;28;19924;-62
2023/12/24 03:50:54;;;;;;;;;;;19.00;59.70;;;;;;5076318;28;19928;-62
2023/12/24 03:53:19;;;;;;;;;;;19.00;59.70;;;;;;5076960;28;19928;-62
2023/12/24 03:55:45;;;;;;;;;;;19.00;59.60;;;;;;5094920;28;19924;-62
2023/12/24 03:58:10;;;;;;;;;;;19.00;59.70;;;;;;5067449;28;20387;-62
2023/12/24 04:00:36;;;;;;;;;;;19.00;59.60;;;;;;5056912;28;19930;-62
2023/12/24 04:03:02;;;;;;;;;;;19.00;59.60;;;;;;5077931;28;20375;-61
2023/12/24 04:05:27;;;;;;;;;;;19.00;59.60;;;;;;5094015;28;19924;-62
2023/12/24 04:07:53;;;;;;;;;;;19.00;59.60;;;;;;5093765;28;20011;-62
2023/12/24 04:10:18;;;;;;;;;;;19.10;59.70;;;;;;5076970;28;19931;-62
2023/12/24 04:12:44;;;;;;;;;;;19.10;59.70;;;;;;5075610;28;20305;-62
2023/12/24 04:15:10;;;;;;;;;;;19.10;59.60;;;;;;5076489;28;19924;-62
2023/12/24 04:17:35;;;;;;;;;;;19.10;59.60;;;;;;5093871;28;19924;-62
2023/12/24 04:20:02;;;;;;;;;;;19.10;59.60;;;;;;5075359;28;19924;-62
2023/12/24 04:22:27;;;;;;;;;;;19.20;59.60;;;;;;5076165;28;19977;-62
2023/12/24 04:24:53;;;;;;;;;;;19.20;60.20;;;;;;5075491;28;19928;-62
2023/12/24 04:27:19;;;;;;;;;;;19.20;59.60;;;;;;5076149;28;21604;-62
2023/12/24 04:29:44;;;;;;;;;;;19.20;59.60;;;;;;5092860;28;19924;-62
2023/12/24 04:32:12;;;;;;;;;;;19.20;59.60;;;;;;5067556;28;19924;-62
2023/12/24 04:34:38;;;;;;;;;;;19.20;59.60;;;;;;5073278;28;20015;-61
2023/12/24 04:37:03;;;;;;;;;;;19.20;59.50;;;;;;5076355;28;20019;-62
2023/12/24 04:39:29;;;;;;;;;;;19.30;59.60;;;;;;5074722;28;19970;-62
2023/12/24 04:41:54;;;;;;;;;;;19.30;59.50;;;;;;5064257;28;19924;-62
2023/12/24 04:44:20;;;;;;;;;;;19.30;59.50;;;;;;5055474;28;19931;-62
2023/12/24 04:46:46;;;;;;;;;;;19.30;59.50;;;;;;5057487;28;20007;-62
2023/12/24 04:49:11;;;;;;;;;;;19.30;59.50;;;;;;5092855;28;19975;-62
2023/12/24 04:51:37;;;;;;;;;;;19.40;59.50;;;;;;5076077;28;20040;-62
2023/12/24 04:54:03;;;;;;;;;;;19.40;59.50;;;;;;5092778;28;20337;-62
2023/12/24 04:56:29;;;;;;;;;;;19.40;59.50;;;;;;5075544;28;19962;-62
2023/12/24 04:58:56;;;;;;;;;;;19.40;59.50;;;;;;5070549;28;20330;-62
2023/12/24 05:01:22;;;;;;;;;;;19.40;59.50;;;;;;5076811;28;20376;-62
2023/12/24 05:03:48;;;;;;;;;;;19.40;59.50;;;;;;5091611;28;19924;-62
2023/12/24 05:06:13;;;;;;;;;;;19.40;59.50;;;;;;5085919;28;20015;-61
2023/12/24 05:08:41;;;;;;;;;;;19.40;59.40;;;;;;5074269;28;20043;-62
2023/12/24 05:11:07;;;;;;;;;;;19.50;59.50;;;;;;5075230;28;19924;-62
2023/12/24 05:13:33;;;;;;;;;;;19.50;59.50;;;;;;5075269;28;19928;-62
2023/12/24 05:15:58;;;;;;;;;;;19.50;59.50;;;;;;5092856;28;19924;-62
2023/12/24 05:18:24;;;;;;;;;;;19.50;59.50;;;;;;5074129;28;19931;-61
2023/12/24 05:20:49;;;;;;;;;;;19.50;59.50;;;;;;5092507;28;20383;-62
2023/12/24 05:23:16;;;;;;;;;;;19.50;59.50;;;;;;5074683;28;19982;-62
2023/12/24 05:25:41;;;;;;;;;;;19.50;59.40;;;;;;5093060;28;19956;-62
2023/12/24 05:28:08;;;;;;;;;;;19.50;59.40;;;;;;5079966;28;19991;-62
2023/12/24 05:30:34;;;;;;;;;;;19.50;59.40;;;;;;5055338;28;19925;-62
2023/12/24 05:32:59;;;;;;;;;;;19.50;59.40;;;;;;5083625;28;20264;-61
2023/12/24 05:35:25;;;;;;;;;;;19.60;59.50;;;;;;5092071;28;19938;-63
2023/12/24 05:37:50;;;;;;;;;;;19.50;59.40;;;;;;5074671;28;19981;-62
2023/12/24 05:40:16;;;;;;;;;;;19.50;59.40;;;;;;5092917;28;20376;-61
2023/12/24 05:42:42;;;;;;;;;;;19.60;59.40;;;;;;5074672;28;19931;-62
2023/12/24 05:45:09;;;;;;;;;;;19.60;59.40;;;;;;5075218;28;20354;-61
2023/12/24 05:47:34;;;;;;;;;;;19.60;59.40;;;;;;5073477;28;19924;-61
2023/12/24 05:50:00;;;;;;;;;;;19.60;59.40;;;;;;5091141;28;19924;-62
2023/12/24 05:52:25;;;;;;;;;;;19.60;59.40;;;;;;5093110;28;19950;-61
2023/12/24 05:54:54;;;;;;;;;;;19.60;59.40;;;;;;5074953;28;19924;-62
2023/12/24 05:57:20;;;;;;;;;;;19.60;59.40;;;;;;5056416;28;19931;-61
2023/12/24 05:59:45;;;;;;;;;;;19.60;59.40;;;;;;5054937;28;19924;-62
2023/12/24 06:02:11;;;;;;;;;;;19.60;59.40;;;;;;5054590;28;20055;-62
2023/12/24 06:04:36;;;;;;;;;;;19.60;59.40;;;;;;5071914;28;19932;-62
2023/12/24 06:07:04;;;;;;;;;;;19.70;59.40;;;;;;5072768;28;19929;-62
2023/12/24 06:09:30;;;;;;;;;;;19.70;59.40;;;;;;5060487;28;20469;-62
2023/12/24 06:11:55;;;;;;;;;;;19.70;59.30;;;;;;5074020;28;20024;-62
2023/12/24 06:14:21;;;;;;;;;;;19.70;59.40;;;;;;5093512;28;19928;-62
2023/12/24 06:16:46;;;;;;;;;;;19.70;59.40;;;;;;5074921;28;20451;-62
2023/12/24 06:19:12;;;;;;;;;;;19.70;59.30;;;;;;5073352;28;19935;-62
2023/12/24 06:21:38;;;;;;;;;;;19.70;59.30;;;;;;5092301;28;19924;-62
2023/12/24 06:24:03;;;;;;;;;;;19.70;59.30;;;;;;5073799;28;20015;-62
2023/12/24 06:26:29;;;;;;;;;;;19.70;59.30;;;;;;5074233;28;19969;-62
2023/12/24 06:28:54;;;;;;;;;;;19.70;59.30;;;;;;5092284;28;19924;-62
2023/12/24 06:31:21;;;;;;;;;;;19.70;59.30;;;;;;5092218;28;19924;-62
2023/12/24 06:33:46;;;;;;;;;;;19.70;59.30;;;;;;5091902;28;20317;-62
2023/12/24 06:36:12;;;;;;;;;;;19.70;59.30;;;;;;5074363;28;19980;-62
2023/12/24 06:38:37;;;;;;;;;;;19.70;59.30;;;;;;5091667;28;19924;-62
2023/12/24 06:41:03;;;;;;;;;;;19.70;59.30;;;;;;5074291;28;20064;-62
2023/12/24 06:43:28;;;;;;;;;;;19.70;59.30;;;;;;5074384;28;19924;-62
2023/12/24 06:45:54;;;;;;;;;;;19.70;59.30;;;;;;5072624;28;19967;-62
2023/12/24 06:48:19;;;;;;;;;;;19.80;59.30;;;;;;5074548;28;19927;-61
2023/12/24 06:50:44;;;;;;;;;;;19.80;59.30;;;;;;5092768;28;20041;-62
2023/12/24 06:53:10;;;;;;;;;;;19.80;59.30;;;;;;5090837;28;20014;-62
2023/12/24 06:55:36;;;;;;;;;;;19.80;59.30;;;;;;5092210;28;20293;-62
2023/12/24 06:58:03;;;;;;;;;;;19.80;59.30;;;;;;5073318;28;19946;-62
2023/12/24 07:00:28;;;;;;;;;;;19.80;59.30;;;;;;5095222;28;19931;-62
2023/12/24 07:02:54;;;;;;;;;;;19.80;59.30;;;;;;5095711;28;19928;-62
2023/12/24 07:05:19;;;;;;;;;;;19.80;59.30;;;;;;5077859;28;20379;-62
2023/12/24 07:07:45;;;;;;;;;;;19.80;59.30;;;;;;5076627;28;20376;-62
2023/12/24 07:10:10;;;;;;;;;;;19.80;59.30;;;;;;5095139;28;20445;-62
2023/12/24 07:12:36;;;;;;;;;;;19.80;59.30;;;;;;5077610;28;19958;-62
2023/12/24 07:15:03;;;;;;;;;;;19.80;59.30;;;;;;5094189;28;20371;-62
2023/12/24 07:17:28;;;;;;;;;;;19.80;59.30;;;;;;5077538;28;19924;-62
2023/12/24 07:19:54;;;;;;;;;;;19.80;59.30;;;;;;5095266;28;19920;-62
2023/12/24 07:22:20;;;;;;;;;;;19.80;59.30;;;;;;5076999;28;20264;-61
2023/12/24 07:24:46;;;;;;;;;;;19.90;59.30;;;;;;5077425;28;19949;-62
2023/12/24 07:27:11;;;;;;;;;;;19.80;59.30;;;;;;5077297;28;20125;-62
2023/12/24 07:29:39;;;;;;;;;;;19.90;59.30;;;;;;5077069;28;19932;-62
2023/12/24 07:32:05;;;;;;;;;;;19.90;59.30;;;;;;5095162;28;20299;-62
2023/12/24 07:34:30;;;;;;;;;;;19.90;59.30;;;;;;5076647;28;20363;-62
2023/12/24 07:36:56;;;;;;;;;;;19.90;59.30;;;;;;5093963;28;19947;-62
2023/12/24 07:39:22;;;;;;;;;;;19.90;59.30;;;;;;5093574;28;19924;-62
2023/12/24 07:41:47;;;;;;;;;;;19.90;59.30;;;;;;5075332;28;19970;-62
2023/12/24 07:44:12;;;;;;;;;;;19.90;59.30;;;;;;5063764;28;19998;-63
2023/12/24 07:46:38;;;;;;;;;;;19.90;59.30;;;;;;5110880;28;19931;-62
2023/12/24 07:49:03;;;;;;;;;;;19.90;59.30;;;;;;5094374;28;19920;-62
2023/12/24 07:51:29;;;;;;;;;;;19.90;59.30;;;;;;5077459;28;20272;-65
2023/12/24 07:53:54;;;;;;;;;;;19.90;59.30;;;;;;5071863;28;20019;-62
2023/12/24 07:56:20;;;;;;;;;;;19.90;59.50;;;;;;5094009;28;20375;-61
2023/12/24 07:58:45;;;;;;;;;;;19.90;59.60;;;;;;5095071;28;20314;-61
2023/12/24 08:01:11;;;;;;;;;;;20.00;59.80;;;;;;5076619;28;19972;-61
2023/12/24 08:03:37;;;;;;;;;;;20.00;59.90;;;;;;5093471;28;20431;-61
2023/12/24 08:06:03;;;;;;;;;;;20.00;59.90;;;;;;5076300;28;20389;-61
2023/12/24 08:08:28;;;;;;;;;;;20.00;60.00;;;;;;5076185;28;19968;-61
2023/12/24 08:10:54;;;;;;;;;;;20.00;60.00;;;;;;5085664;28;20038;-62
2023/12/24 08:13:20;;;;;;;;;;;20.00;60.00;;;;;;5079203;28;19924;-61
2023/12/24 08:15:45;;;;;;;;;;;20.00;60.00;;;;;;5074096;28;19931;-61
2023/12/24 08:18:11;;;;;;;;;;;20.00;60.00;;;;;;5075222;28;19928;-61
2023/12/24 08:20:36;;;;;;;;;;;20.00;60.00;;;;;;5094481;28;20073;-61
2023/12/24 08:23:02;;;;;;;;;;;20.00;60.00;;;;;;5092221;28;19924;-61
2023/12/24 08:25:27;;;;;;;;;;;20.00;60.20;;;;;;5093198;28;19931;-61
2023/12/24 08:27:53;;;;;;;;;;;20.10;60.20;;;;;;5075466;28;19934;-61
2023/12/24 08:30:18;;;;;;;;;;;20.10;60.30;;;;;;5076198;28;19924;-61
2023/12/24 08:32:45;;;;;;;;;;;20.10;60.40;;;;;;5074486;28;19924;-61
2023/12/24 08:35:11;;;;;;;;;;;20.10;60.40;;;;;;5093705;28;19946;-60
2023/12/24 08:37:36;;;;;;;;;;;20.10;60.40;;;;;;5075304;28;20295;-61
2023/12/24 08:40:03;;;;;;;;;;;20.10;60.40;;;;;;5074656;28;19924;-61
2023/12/24 08:42:28;;;;;;;;;;;20.10;60.30;;;;;;5076078;28;19928;-61
2023/12/24 08:44:54;;;;;;;;;;;20.10;60.40;;;;;;5092701;28;20376;-61
2023/12/24 08:47:19;;;;;;;;;;;20.10;60.50;;;;;;5075407;28;19960;-61
2023/12/24 08:49:45;;;;;;;;;;;20.10;60.50;;;;;;5093958;28;19971;-61
2023/12/24 08:52:10;;;;;;;;;;;20.10;60.70;;;;;;5092117;28;19993;-61
2023/12/24 08:54:36;;;;;;;;;;;20.10;60.70;;;;;;5093795;28;19924;-61
2023/12/24 08:57:01;;;;;;;;;;;20.10;60.50;;;;;;5093299;28;19932;-67
2023/12/24 08:59:27;;;;;;;;;;;20.10;60.50;;;;;;5106288;28;19990;-62
2023/12/24 09:01:53;;;;;;;;;;;20.10;60.50;;;;;;5092934;28;19928;-62
2023/12/24 09:04:19;;;;;;;;;;;20.10;60.40;;;;;;5072939;28;19928;-62
2023/12/24 09:06:44;;;;;;;;;;;20.10;60.40;;;;;;5084620;28;19931;-62
2023/12/24 09:09:10;;;;;;;;;;;20.10;60.40;;;;;;5075203;28;20360;-62
2023/12/24 09:11:35;;;;;;;;;;;20.10;60.40;;;;;;5093652;28;19931;-63
2023/12/24 09:14:02;;;;;;;;;;;20.10;60.40;;;;;;5074281;28;19938;-62
2023/12/24 09:16:28;;;;;;;;;;;20.10;60.40;;;;;;5093710;28;19928;-62
2023/12/24 09:18:53;;;;;;;;;;;20.10;60.40;;;;;;5098550;28;19924;-62
2023/12/24 09:21:19;;;;;;;;;;;20.10;60.40;;;;;;5062212;28;19990;-62
2023/12/24 09:23:44;;;;;;;;;;;20.10;60.40;;;;;;5074270;28;20015;-62
2023/12/24 09:26:10;;;;;;;;;;;20.10;60.40;;;;;;5077093;28;19924;-62
2023/12/24 09:28:35;;;;;;;;;;;20.10;60.40;;;;;;5084770;28;19974;-62
2023/12/24 09:31:01;;;;;;;;;;;20.00;60.30;;;;;;5085508;28;19931;-62
2023/12/24 09:33:26;;;;;;;;;;;20.00;60.30;;;;;;5101814;28;20375;-62
2023/12/24 09:35:52;;;;;;;;;;;20.00;60.30;;;;;;5081747;28;19964;-62
2023/12/24 09:38:17;;;;;;;;;;;20.00;60.30;;;;;;5102562;28;20010;-62
2023/12/24 09:40:43;;;;;;;;;;;20.00;60.50;;;;;;5085623;28;20341;-63
2023/12/24 09:43:08;;;;;;;;;;;20.00;60.40;;;;;;5091586;28;19928;-62
2023/12/24 09:45:37;;;;;;;;;;;20.00;60.40;;;;;;5075221;28;20300;-62
2023/12/24 09:48:03;;;;;;;;;;;20.00;60.40;;;;;;5092222;28;19935;-62
2023/12/24 09:50:28;;;;;;;;;;;20.00;60.40;;;;;;5093081;28;19920;-62
2023/12/24 09:52:54;;;;;;;;;;;20.00;60.40;;;;;;5074543;28;19950;-63
2023/12/24 09:55:19;;;;;;;;;;;20.00;60.40;;;;;;5074266;28;19931;-62
2023/12/24 09:57:45;;;;;;;;;;;20.00;60.40;;;;;;5075198;28;19931;-62
2023/12/24 10:00:11;;;;;;;;;;;20.00;60.50;;;;;;5074750;28;20836;-62
2023/12/24 10:02:36;;;;;;;;;;;20.00;60.50;;;;;;5074239;28;19924;-61
2023/12/24 10:05:03;;;;;;;;;;;20.00;60.50;;;;;;5092528;28;19924;-61
2023/12/24 10:07:43;;;;;;;;;;;20.10;60.70;;;;;;5074950;28;19928;-61
2023/12/24 10:10:09;;;;;;;;;;;20.10;60.70;;;;;;5073376;28;19949;-60
2023/12/24 10:12:35;;;;;;;;;;;20.10;60.70;;;;;;5093147;28;19924;-64
2023/12/24 10:15:00;;;;;;;;;;;20.10;60.80;;;;;;5073672;28;19950;-62
2023/12/24 10:17:29;;;;;;;;;;;20.10;61.00;;;;;;5092157;28;20057;-62
2023/12/24 10:19:55;;;;;;;;;;;20.10;61.00;;;;;;5074136;28;19936;-60
2023/12/24 10:22:22;;;;;;;;;;;20.10;61.20;;;;;;5074559;28;19928;-62
2023/12/24 10:24:48;;;;;;;;;;;20.10;61.10;;;;;;5092217;28;19979;-63
2023/12/24 10:27:15;;;;;;;;;;;20.10;61.20;;;;;;5090474;28;20073;-62
2023/12/24 10:29:41;;;;;;;;;;;20.10;61.20;;;;;;5074295;28;19924;-63
2023/12/24 10:32:09;;;;;;;;;;;20.10;61.20;;;;;;5091428;28;19932;-68
2023/12/24 10:34:35;;;;;;;;;;;20.10;61.30;;;;;;5078260;28;19971;-62
2023/12/24 10:37:17;;;;;;;;;;;20.10;61.40;;;;;;5077268;28;19982;-62
2023/12/24 10:39:43;;;;;;;;;;;20.10;61.40;;;;;;5078487;28;20011;-60
2023/12/24 10:42:08;;;;;;;;;;;20.10;61.50;;;;;;5096167;28;20023;-63
2023/12/24 10:44:34;;;;;;;;;;;20.10;61.60;;;;;;5076877;28;19924;-62
2023/12/24 10:46:59;;;;;;;;;;;20.10;61.80;;;;;;5078062;28;19931;-63
2023/12/24 10:49:25;;;;;;;;;;;20.10;61.70;;;;;;5076251;28;19928;-68
2023/12/24 10:51:50;;;;;;;;;;;20.10;61.70;;;;;;5072434;28;20391;-69
2023/12/24 10:54:16;;;;;;;;;;;20.10;61.80;;;;;;5077657;28;20014;-69
2023/12/24 10:57:05;;;;;;;;;;;20.10;62.00;;;;;;5077669;28;20278;-63
2023/12/24 10:59:49;;;;;;;;;;;20.10;61.90;;;;;;5063744;28;19973;-64
2023/12/24 11:02:15;;;;;;;;;;;20.10;62.00;;;;;;5074831;28;19924;-64
2023/12/24 11:04:41;;;;;;;;;;;20.10;62.00;;;;;;5060752;28;19938;-65
2023/12/24 11:07:07;;;;;;;;;;;20.10;61.90;;;;;;5076468;28;19930;-65
2023/12/24 11:09:35;;;;;;;;;;;20.10;62.00;;;;;;5073503;28;19927;-61
2023/12/24 11:12:01;;;;;;;;;;;20.10;62.20;;;;;;5103456;28;19928;-61
2023/12/24 11:14:47;;;;;;;;;;;20.10;62.30;;;;;;5076701;28;20023;-63
2023/12/24 11:17:31;;;;;;;;;;;20.10;62.30;;;;;;5077260;28;19998;-63
2023/12/24 11:20:15;;;;;;;;;;;20.10;62.30;;;;;;5094472;28;19930;-61
2023/12/24 11:22:41;;;;;;;;;;;20.10;62.50;;;;;;5095258;28;20288;-60
2023/12/24 11:25:15;;;;;;;;;;;20.10;62.40;;;;;;5060192;28;19931;-61
2023/12/24 11:27:50;;;;;;;;;;;20.10;62.40;;;;;;5076684;28;19924;-61
2023/12/24 11:30:16;;;;;;;;;;;20.10;62.40;;;;;;5094056;28;20014;-61
2023/12/24 11:32:41;;;;;;;;;;;20.10;62.50;;;;;;5095164;28;20019;-70
2023/12/24 11:35:08;;;;;;;;;;;20.00;62.40;;;;;;5076482;28;20299;-64
2023/12/24 11:37:35;;;;;;;;;;;20.10;62.40;;;;;;5077142;28;19931;-64
2023/12/24 11:40:02;;;;;;;;;;;20.00;62.30;;;;;;5094615;28;19931;-63
2023/12/24 11:42:46;;;;;;;;;;;20.00;62.30;;;;;;5094012;28;19924;-63
2023/12/24 11:45:18;;;;;;;;;;;20.00;62.30;;;;;;5075315;28;19928;-64
2023/12/24 11:47:44;;;;;;;;;;;20.00;62.30;;;;;;5076499;28;19927;-64
2023/12/24 11:50:09;;;;;;;;;;;20.00;62.30;;;;;;5077194;28;19977;-64
2023/12/24 11:52:35;;;;;;;;;;;20.00;62.30;;;;;;5060397;28;20539;-64
2023/12/24 11:55:00;;;;;;;;;;;19.90;62.30;;;;;;5076234;28;19977;-63
2023/12/24 11:57:26;;;;;;;;;;;19.90;62.20;;;;;;5076950;28;20442;-63
2023/12/24 11:59:52;;;;;;;;;;;19.90;62.20;;;;;;5094656;28;19932;-64
2023/12/24 12:02:18;;;;;;;;;;;19.90;62.30;;;;;;5076170;28;19977;-64
2023/12/24 12:04:44;;;;;;;;;;;19.90;62.30;;;;;;5076948;28;19932;-66
2023/12/24 12:07:09;;;;;;;;;;;19.90;62.30;;;;;;5094380;28;19924;-63
2023/12/24 12:09:35;;;;;;;;;;;19.90;62.30;;;;;;5076105;28;19924;-62
2023/12/24 12:12:00;;;;;;;;;;;19.90;62.30;;;;;;5074685;28;19932;-63
2023/12/24 12:14:26;;;;;;;;;;;19.90;62.50;;;;;;5093338;28;20006;-64
2023/12/24 12:16:51;;;;;;;;;;;19.90;62.50;;;;;;5090757;28;19931;-64
2023/12/24 12:19:17;;;;;;;;;;;19.90;62.60;;;;;;5102253;28;19964;-64
2023/12/24 12:21:44;;;;;;;;;;;19.90;62.60;;;;;;5075184;28;21325;-64
2023/12/24 12:24:09;;;;;;;;;;;19.90;62.70;;;;;;5072124;28;20011;-63
2023/12/24 12:26:35;;;;;;;;;;;19.90;62.60;;;;;;5075701;28;20022;-64
2023/12/24 12:29:00;;;;;;;;;;;19.90;62.70;;;;;;5093215;28;19935;-63
2023/12/24 12:31:26;;;;;;;;;;;19.90;62.80;;;;;;5092020;28;20015;-64
2023/12/24 12:33:51;;;;;;;;;;;19.90;62.70;;;;;;5075493;28;19924;-64
2023/12/24 12:36:17;;;;;;;;;;;19.90;62.80;;;;;;5101355;28;19943;-64
2023/12/24 12:38:42;;;;;;;;;;;19.90;62.80;;;;;;5075113;28;19932;-64
2023/12/24 12:41:08;;;;;;;;;;;19.90;62.80;;;;;;5093349;28;19928;-65
2023/12/24 12:43:34;;;;;;;;;;;19.90;62.80;;;;;;5075600;28;20023;-63
2023/12/24 12:46:00;;;;;;;;;;;19.90;62.90;;;;;;5092895;28;19931;-64
2023/12/24 12:48:25;;;;;;;;;;;19.90;62.80;;;;;;5101134;28;19924;-64
2023/12/24 12:50:51;;;;;;;;;;;19.90;62.90;;;;;;5101314;28;19924;-64
2023/12/24 12:53:25;;;;;;;;;;;19.90;62.90;;;;;;5093274;28;20010;-64
2023/12/24 12:55:58;;;;;;;;;;;19.90;62.90;;;;;;5072748;28;20283;-64
2023/12/24 12:58:24;;;;;;;;;;;20.00;62.90;;;;;;5074622;28;19962;-63
2023/12/24 13:00:55;;;;;;;;;;;20.00;62.90;;;;;;5075896;28;19924;-65
2023/12/24 13:03:21;;;;;;;;;;;20.00;63.00;;;;;;5075564;28;19931;-64
2023/12/24 13:05:46;;;;;;;;;;;20.00;63.00;;;;;;5075253;28;20006;-64
2023/12/24 13:08:13;;;;;;;;;;;20.00;63.00;;;;;;5075062;28;19993;-64
2023/12/24 13:10:38;;;;;;;;;;;20.00;63.00;;;;;;5093634;28;19924;-65
2023/12/24 13:13:24;;;;;;;;;;;20.00;63.00;;;;;;5092472;28;20252;-63
2023/12/24 13:16:04;;;;;;;;;;;20.00;63.00;;;;;;5075592;28;19971;-64
2023/12/24 13:18:29;;;;;;;;;;;20.10;63.00;;;;;;5093716;28;19924;-64
2023/12/24 13:20:55;;;;;;;;;;;20.10;63.10;;;;;;5092492;28;19924;-64
2023/12/24 13:23:21;;;;;;;;;;;20.10;63.10;;;;;;5075267;28;20741;-64
2023/12/24 13:25:47;;;;;;;;;;;20.10;63.10;;;;;;5092595;28;19931;-64
2023/12/24 13:28:14;;;;;;;;;;;20.10;63.10;;;;;;5073804;28;20229;-63
2023/12/24 13:30:41;;;;;;;;;;;20.10;63.10;;;;;;5093556;28;19970;-63
2023/12/24 13:33:07;;;;;;;;;;;20.20;63.10;;;;;;5074859;28;19924;-65
2023/12/24 13:35:37;;;;;;;;;;;20.20;63.10;;;;;;5093236;28;19931;-62
2023/12/24 13:38:04;;;;;;;;;;;20.20;63.10;;;;;;5093172;28;20380;-62
2023/12/24 13:40:29;;;;;;;;;;;20.20;63.10;;;;;;5092597;28;19959;-62
2023/12/24 13:42:55;;;;;;;;;;;20.20;63.10;;;;;;5075140;28;19963;-62
2023/12/24 13:45:20;;;;;;;;;;;20.20;63.10;;;;;;5075117;28;19970;-60
2023/12/24 13:47:45;;;;;;;;;;;20.20;63.10;;;;;;5092590;28;19924;-64
2023/12/24 13:50:11;;;;;;;;;;;20.20;63.00;;;;;;5074848;28;19928;-63
2023/12/24 13:52:36;;;;;;;;;;;20.20;62.90;;;;;;5075398;28;19924;-70
2023/12/24 13:55:04;;;;;;;;;;;20.20;62.80;;;;;;5108276;28;20253;-64
2023/12/24 13:57:30;;;;;;;;;;;20.20;62.70;;;;;;5092560;28;19931;-64
2023/12/24 13:59:55;;;;;;;;;;;20.20;62.70;;;;;;5089606;28;19927;-64
2023/12/24 14:02:21;;;;;;;;;;;20.20;62.70;;;;;;5054493;28;19924;-64
2023/12/24 14:04:46;;;;;;;;;;;20.20;62.70;;;;;;5072213;28;20371;-63
2023/12/24 14:07:12;;;;;;;;;;;20.20;62.60;;;;;;5074089;28;19934;-62
2023/12/24 14:09:37;;;;;;;;;;;20.20;62.80;;;;;;5096658;28;20375;-63
2023/12/24 14:12:03;;;;;;;;;;;20.20;62.90;;;;;;5097002;28;20402;-63